Time;durP1;ratioP1;P1;durP2;ratioP2;P2;SDS_P1;SDS_P2;PMS_P1;PMS_P2;Temp;Humidity;BMP_temperature;BMP_pressure;BME280_temperature;BME280_humidity;BME280_pressure;Samples;Min_cycle;Max_cycle;Signal;HPM_P1;HPM_P2
2021/03/03 00:02:16;;;;;;;49.28;27.77;;;8.50;76.60;;;;;;5033371;28;20120;-80
2021/03/03 00:04:42;;;;;;;34.92;18.23;;;8.50;76.10;;;;;;5033326;28;20474;-79
2021/03/03 00:07:08;;;;;;;25.48;15.48;;;8.50;75.90;;;;;;5033344;28;20433;-80
2021/03/03 00:09:33;;;;;;;27.08;15.20;;;8.50;75.90;;;;;;5033541;28;20084;-79
2021/03/03 00:11:59;;;;;;;29.58;15.00;;;8.50;76.10;;;;;;5015701;28;20028;-80
2021/03/03 00:14:25;;;;;;;27.30;15.20;;;8.40;75.90;;;;;;5033322;28;20079;-79
2021/03/03 00:16:50;;;;;;;29.98;15.77;;;8.40;75.90;;;;;;5033459;28;20079;-80
2021/03/03 00:19:16;;;;;;;28.92;15.05;;;8.40;75.90;;;;;;5033405;28;20036;-80
2021/03/03 00:21:42;;;;;;;29.67;15.63;;;8.40;76.00;;;;;;5015468;28;20036;-80
2021/03/03 00:24:08;;;;;;;26.48;14.70;;;8.40;76.20;;;;;;5033166;28;20112;-79
2021/03/03 00:26:33;;;;;;;29.63;15.35;;;8.40;76.20;;;;;;5033251;28;20021;-80
2021/03/03 00:28:59;;;;;;;26.48;14.25;;;8.40;76.00;;;;;;5033174;28;20018;-80
2021/03/03 00:31:25;;;;;;;27.60;15.18;;;8.40;76.00;;;;;;5015338;28;20518;-80
2021/03/03 00:33:50;;;;;;;28.35;14.70;;;8.50;75.90;;;;;;5014968;28;20506;-80
2021/03/03 00:36:17;;;;;;;26.95;14.90;;;8.40;75.80;;;;;;5015402;28;20095;-80
2021/03/03 00:38:42;;;;;;;29.27;15.25;;;8.40;76.10;;;;;;5033014;28;20100;-80
2021/03/03 00:41:08;;;;;;;32.17;15.45;;;8.40;76.20;;;;;;5032872;28;20033;-80
2021/03/03 00:43:34;;;;;;;29.85;14.98;;;8.30;76.20;;;;;;5032575;28;20057;-80
2021/03/03 00:46:00;;;;;;;38.38;15.75;;;8.30;76.20;;;;;;5032805;28;20498;-80
2021/03/03 00:48:26;;;;;;;34.55;15.57;;;8.30;76.20;;;;;;5015036;28;20084;-80
2021/03/03 00:50:52;;;;;;;29.10;15.70;;;8.40;76.50;;;;;;5015095;28;20026;-80
2021/03/03 00:53:17;;;;;;;27.33;15.75;;;8.40;76.50;;;;;;5014837;28;20035;-79
2021/03/03 00:55:52;;;;;;;32.15;15.60;;;8.30;76.40;;;;;;5032730;28;20025;-80
2021/03/03 00:58:19;;;;;;;29.92;15.55;;;8.30;76.50;;;;;;5032834;28;20386;-80
2021/03/03 01:00:45;;;;;;;34.75;16.33;;;8.30;76.60;;;;;;5032830;28;20037;-79
2021/03/03 01:03:11;;;;;;;27.92;15.15;;;8.30;76.60;;;;;;5015015;28;20037;-80
2021/03/03 01:05:41;;;;;;;34.13;15.93;;;8.20;76.60;;;;;;5014978;28;20026;-79
2021/03/03 01:08:07;;;;;;;29.58;15.27;;;8.20;76.70;;;;;;5032787;28;20022;-80
2021/03/03 01:10:33;;;;;;;29.80;15.38;;;8.20;76.60;;;;;;5015420;28;20092;-79
2021/03/03 01:12:59;;;;;;;25.88;14.15;;;8.20;76.80;;;;;;5036827;28;20467;-80
2021/03/03 01:15:25;;;;;;;30.55;15.40;;;8.20;76.80;;;;;;5036264;28;20045;-79
2021/03/03 01:17:52;;;;;;;27.55;14.25;;;8.20;76.90;;;;;;5023224;28;20087;-80
2021/03/03 01:20:18;;;;;;;26.30;14.85;;;8.30;76.80;;;;;;5036817;28;20032;-80
2021/03/03 01:22:43;;;;;;;29.90;15.63;;;8.30;76.90;;;;;;5035327;28;20026;-80
2021/03/03 01:25:09;;;;;;;28.70;15.23;;;8.30;77.00;;;;;;5021590;28;20056;-80
2021/03/03 01:27:35;;;;;;;35.28;16.58;;;8.20;77.00;;;;;;5036505;28;20364;-80
2021/03/03 01:30:01;;;;;;;33.47;15.30;;;8.30;77.00;;;;;;5036426;28;20033;-80
2021/03/03 01:32:26;;;;;;;29.90;15.75;;;8.20;77.20;;;;;;5036106;28;20037;-79
2021/03/03 01:34:52;;;;;;;29.60;14.75;;;8.20;77.40;;;;;;5036363;28;20483;-80
2021/03/03 01:37:18;;;;;;;29.52;15.20;;;8.10;77.50;;;;;;5036157;28;20091;-80
2021/03/03 01:39:43;;;;;;;30.30;15.65;;;8.10;77.30;;;;;;5036421;28;20036;-80
2021/03/03 01:42:09;;;;;;;30.42;15.45;;;8.10;77.50;;;;;;5036242;28;20029;-79
2021/03/03 01:44:35;;;;;;;29.35;14.30;;;8.10;77.40;;;;;;5018410;28;20083;-80
2021/03/03 01:47:00;;;;;;;27.85;14.70;;;8.10;77.50;;;;;;5036307;28;20108;-80
2021/03/03 01:49:26;;;;;;;33.28;14.95;;;8.20;77.40;;;;;;5018250;28;20025;-80
2021/03/03 01:51:53;;;;;;;28.20;14.95;;;8.20;77.40;;;;;;5036046;28;20441;-80
2021/03/03 01:54:18;;;;;;;28.70;15.07;;;8.20;77.40;;;;;;5036124;28;20033;-80
2021/03/03 01:56:44;;;;;;;30.02;15.82;;;8.20;77.20;;;;;;5018315;28;20033;-80
2021/03/03 01:59:09;;;;;;;31.45;15.48;;;8.20;77.40;;;;;;5035936;28;20033;-80
2021/03/03 02:01:35;;;;;;;34.75;15.95;;;8.20;77.50;;;;;;5018098;28;20056;-79
2021/03/03 02:04:02;;;;;;;31.40;14.02;;;8.10;77.40;;;;;;5035789;28;20467;-79
2021/03/03 02:06:31;;;;;;;30.27;15.30;;;8.10;77.60;;;;;;5035765;28;20026;-79
2021/03/03 02:09:14;;;;;;;27.33;14.70;;;8.10;77.50;;;;;;5035785;28;20029;-80
2021/03/03 02:11:52;;;;;;;29.98;14.15;;;8.10;77.40;;;;;;5035674;28;20112;-80
2021/03/03 02:14:23;;;;;;;30.50;14.63;;;8.10;77.50;;;;;;5035557;28;20046;-78
2021/03/03 02:16:49;;;;;;;30.52;14.82;;;8.10;77.30;;;;;;5035629;28;20076;-80
2021/03/03 02:19:21;;;;;;;28.23;16.35;;;8.10;77.10;;;;;;5035643;28;20033;-80
2021/03/03 02:21:55;;;;;;;30.00;14.48;;;8.10;77.30;;;;;;5017278;28;20116;-80
2021/03/03 02:24:27;;;;;;;28.40;15.30;;;8.10;77.10;;;;;;5035465;28;20029;-80
2021/03/03 02:26:56;;;;;;;33.78;16.13;;;8.10;77.10;;;;;;5035358;28;20022;-80
2021/03/03 02:29:25;;;;;;;28.20;15.90;;;8.10;77.50;;;;;;5035311;28;20028;-80
2021/03/03 02:31:52;;;;;;;27.02;14.02;;;8.00;77.60;;;;;;5017574;28;20064;-80
2021/03/03 02:34:20;;;;;;;33.92;15.85;;;8.10;77.20;;;;;;5017555;28;20055;-80
2021/03/03 02:36:50;;;;;;;29.77;15.30;;;8.10;77.40;;;;;;5017613;28;20033;-80
2021/03/03 02:39:17;;;;;;;27.83;14.80;;;8.00;77.30;;;;;;5035088;28;20029;-80
2021/03/03 02:41:46;;;;;;;30.00;15.25;;;8.00;77.60;;;;;;5035020;28;20081;-80
2021/03/03 02:44:12;;;;;;;31.27;14.02;;;8.00;77.80;;;;;;5035150;28;20032;-80
2021/03/03 02:46:41;;;;;;;27.42;15.20;;;8.00;77.60;;;;;;5035150;28;20022;-80
2021/03/03 02:49:07;;;;;;;26.63;15.18;;;8.00;77.60;;;;;;5034960;28;20025;-80
2021/03/03 02:51:33;;;;;;;29.73;14.73;;;8.00;77.60;;;;;;5034998;28;20033;-80
2021/03/03 02:53:59;;;;;;;25.92;14.70;;;8.00;77.60;;;;;;5017294;28;20034;-80
2021/03/03 02:56:25;;;;;;;25.38;14.45;;;7.90;77.30;;;;;;5034912;28;20037;-80
2021/03/03 02:58:51;;;;;;;28.27;14.02;;;8.00;77.30;;;;;;5034951;28;20022;-80
2021/03/03 03:01:18;;;;;;;24.85;13.85;;;8.00;77.50;;;;;;5034506;28;20033;-80
2021/03/03 03:03:59;;;;;;;25.88;14.45;;;8.00;77.40;;;;;;5033559;28;20064;-80
2021/03/03 03:06:47;;;;;;;26.60;13.98;;;7.90;77.30;;;;;;5033497;28;20032;-80
2021/03/03 03:09:17;;;;;;;31.05;14.93;;;7.90;77.30;;;;;;5034237;28;20033;-80
2021/03/03 03:11:51;;;;;;;25.17;14.20;;;7.90;77.20;;;;;;5034422;28;20084;-80
2021/03/03 03:14:24;;;;;;;31.40;15.05;;;7.90;78.20;;;;;;5034549;28;20411;-80
2021/03/03 03:16:52;;;;;;;24.48;13.25;;;7.80;77.50;;;;;;5033358;28;20025;-80
2021/03/03 03:19:22;;;;;;;28.05;14.65;;;7.80;77.50;;;;;;5032963;28;20068;-79
2021/03/03 03:21:49;;;;;;;28.20;13.40;;;7.80;77.70;;;;;;5034182;28;20399;-80
2021/03/03 03:24:19;;;;;;;24.92;14.13;;;7.80;77.70;;;;;;5034442;28;20386;-80
2021/03/03 03:26:47;;;;;;;25.95;14.68;;;7.80;77.70;;;;;;5033717;28;20521;-80
2021/03/03 03:29:15;;;;;;;30.27;14.15;;;7.80;77.80;;;;;;5033995;28;20014;-80
2021/03/03 03:31:43;;;;;;;25.30;13.88;;;7.80;78.00;;;;;;5034093;28;20037;-80
2021/03/03 03:34:11;;;;;;;27.80;14.38;;;7.80;78.00;;;;;;5033167;28;20060;-80
2021/03/03 03:36:38;;;;;;;30.45;15.70;;;7.80;77.80;;;;;;5016012;28;20037;-77
2021/03/03 03:39:07;;;;;;;25.38;14.73;;;7.80;78.00;;;;;;5016158;28;20075;-78
2021/03/03 03:41:33;;;;;;;29.70;14.88;;;7.70;78.00;;;;;;5033832;28;20033;-77
2021/03/03 03:43:59;;;;;;;28.27;14.00;;;7.70;78.00;;;;;;5033719;28;20026;-77
2021/03/03 03:46:27;;;;;;;30.73;15.07;;;7.80;77.90;;;;;;5033680;28;20018;-77
2021/03/03 03:48:53;;;;;;;27.50;14.45;;;7.70;78.00;;;;;;5016108;28;20036;-77
2021/03/03 03:51:19;;;;;;;25.27;13.73;;;7.70;78.20;;;;;;5033705;28;20025;-77
2021/03/03 03:53:44;;;;;;;31.30;15.70;;;7.70;78.40;;;;;;5015920;28;20053;-77
2021/03/03 03:56:11;;;;;;;24.75;13.60;;;7.70;78.30;;;;;;5033790;28;20036;-77
2021/03/03 03:58:37;;;;;;;26.00;13.93;;;7.70;79.00;;;;;;5033607;28;20048;-77
2021/03/03 04:01:04;;;;;;;29.42;13.77;;;7.70;78.20;;;;;;5015628;28;20033;-77
2021/03/03 04:03:33;;;;;;;23.60;13.88;;;7.60;78.30;;;;;;5033919;28;20497;-80
2021/03/03 04:06:00;;;;;;;24.52;14.38;;;7.60;78.40;;;;;;5033788;28;20029;-80
2021/03/03 04:08:25;;;;;;;26.15;14.27;;;7.60;78.40;;;;;;5016280;28;20025;-80
2021/03/03 04:10:52;;;;;;;30.58;14.85;;;7.60;78.50;;;;;;5015848;28;20226;-80
2021/03/03 04:13:18;;;;;;;24.02;13.52;;;7.60;78.70;;;;;;5015710;28;20425;-80
2021/03/03 04:15:44;;;;;;;26.45;14.27;;;7.60;78.80;;;;;;5033327;28;20057;-79
2021/03/03 04:18:11;;;;;;;25.75;13.55;;;7.60;78.80;;;;;;5033465;28;20021;-80
2021/03/03 04:20:38;;;;;;;28.98;14.30;;;7.60;78.50;;;;;;5033393;28;20033;-80
2021/03/03 04:23:04;;;;;;;25.58;12.90;;;7.60;78.50;;;;;;5015396;28;20124;-80
2021/03/03 04:25:29;;;;;;;27.42;13.73;;;7.60;78.60;;;;;;5033300;28;20117;-80
2021/03/03 04:27:55;;;;;;;30.45;14.20;;;7.60;78.70;;;;;;5033192;28;20101;-80
2021/03/03 04:30:21;;;;;;;27.08;14.07;;;7.70;78.50;;;;;;5033022;28;20640;-80
2021/03/03 04:32:47;;;;;;;29.45;14.02;;;7.60;78.60;;;;;;5033246;28;20078;-80
2021/03/03 04:35:12;;;;;;;28.25;13.77;;;7.60;78.60;;;;;;5033206;28;20026;-80
2021/03/03 04:37:39;;;;;;;28.83;14.40;;;7.60;78.90;;;;;;5033151;28;20069;-80
2021/03/03 04:40:09;;;;;;;35.92;14.73;;;7.50;79.00;;;;;;5033018;28;20025;-80
2021/03/03 04:42:35;;;;;;;28.05;15.77;;;7.50;79.10;;;;;;5015221;28;20025;-80
2021/03/03 04:45:04;;;;;;;31.48;13.73;;;7.60;79.00;;;;;;5032765;28;20122;-80
2021/03/03 04:47:30;;;;;;;23.67;13.07;;;7.60;78.70;;;;;;5033016;28;20545;-80
2021/03/03 04:49:55;;;;;;;27.58;13.93;;;7.60;78.70;;;;;;5032926;28;20022;-80
2021/03/03 04:52:21;;;;;;;28.17;14.80;;;7.60;78.70;;;;;;5032850;28;20025;-80
2021/03/03 04:54:46;;;;;;;24.67;13.73;;;7.60;78.70;;;;;;5032946;28;20029;-80
2021/03/03 04:57:12;;;;;;;30.08;15.07;;;7.60;79.00;;;;;;5016299;28;20048;-80
2021/03/03 04:59:38;;;;;;;25.80;13.90;;;7.50;78.90;;;;;;5032904;28;20108;-80
2021/03/03 05:02:03;;;;;;;27.42;14.38;;;7.50;79.10;;;;;;5032835;28;20033;-80
2021/03/03 05:04:29;;;;;;;26.20;13.10;;;7.50;79.10;;;;;;5015069;28;20033;-80
2021/03/03 05:06:55;;;;;;;27.48;13.52;;;7.50;79.00;;;;;;5032600;28;20026;-80
2021/03/03 05:09:20;;;;;;;26.15;13.40;;;7.60;78.90;;;;;;5032860;28;20022;-80
2021/03/03 05:11:46;;;;;;;29.02;14.43;;;7.60;78.40;;;;;;5032411;28;20798;-80
2021/03/03 05:14:12;;;;;;;29.48;13.07;;;7.60;78.20;;;;;;5032547;28;20049;-80
2021/03/03 05:16:38;;;;;;;28.17;14.10;;;7.60;78.20;;;;;;5032252;28;20080;-80
2021/03/03 05:19:03;;;;;;;26.05;13.25;;;7.60;78.10;;;;;;5015392;28;20068;-80
2021/03/03 05:21:29;;;;;;;27.85;13.45;;;7.70;77.80;;;;;;5015559;28;20122;-80
2021/03/03 05:23:55;;;;;;;26.10;14.27;;;7.70;77.70;;;;;;5032561;28;20387;-80
2021/03/03 05:26:21;;;;;;;23.98;13.38;;;7.60;77.70;;;;;;5016627;28;20103;-80
2021/03/03 05:28:46;;;;;;;29.20;13.65;;;7.60;77.90;;;;;;5021422;28;20040;-80
2021/03/03 05:31:13;;;;;;;25.13;13.93;;;7.60;77.60;;;;;;5014877;28;20021;-79
2021/03/03 05:33:42;;;;;;;25.02;13.32;;;7.60;77.60;;;;;;5032509;28;20479;-80
2021/03/03 05:36:09;;;;;;;28.00;14.25;;;7.60;77.70;;;;;;5014836;28;20057;-80
2021/03/03 05:38:36;;;;;;;29.30;13.40;;;7.60;77.60;;;;;;5032516;28;20029;-80
2021/03/03 05:41:03;;;;;;;25.52;13.25;;;7.60;77.60;;;;;;5032466;28;20224;-80
2021/03/03 05:43:31;;;;;;;25.25;13.60;;;7.60;77.60;;;;;;5032348;28;20052;-80
2021/03/03 05:45:58;;;;;;;26.42;13.10;;;7.60;77.60;;;;;;5032287;28;20049;-80
2021/03/03 05:48:26;;;;;;;29.15;13.15;;;7.60;77.60;;;;;;5014729;28;20026;-80
2021/03/03 05:50:57;;;;;;;26.75;12.95;;;7.60;77.70;;;;;;5014662;28;20025;-80
2021/03/03 05:53:25;;;;;;;26.08;12.57;;;7.60;77.70;;;;;;5032294;28;20041;-79
2021/03/03 05:55:54;;;;;;;25.17;12.48;;;7.60;77.80;;;;;;5032319;28;20045;-80
2021/03/03 05:58:20;;;;;;;27.17;12.82;;;7.60;78.20;;;;;;5017547;28;20026;-80
2021/03/03 06:00:48;;;;;;;28.52;12.43;;;7.50;78.50;;;;;;5018152;28;20022;-80
2021/03/03 06:03:15;;;;;;;28.02;12.93;;;7.50;78.60;;;;;;5018053;28;20037;-80
2021/03/03 06:05:41;;;;;;;21.50;12.68;;;7.50;78.40;;;;;;5018092;28;20026;-80
2021/03/03 06:08:07;;;;;;;27.30;12.82;;;7.50;78.80;;;;;;5035698;28;20112;-80
2021/03/03 06:10:33;;;;;;;24.27;12.02;;;7.50;78.70;;;;;;5035766;28;20147;-80
2021/03/03 06:12:59;;;;;;;27.88;12.57;;;7.50;78.70;;;;;;5035615;28;20070;-80
2021/03/03 06:15:26;;;;;;;26.27;13.63;;;7.50;78.60;;;;;;5035239;28;20052;-80
2021/03/03 06:17:52;;;;;;;22.10;11.75;;;7.50;78.60;;;;;;5017947;28;20399;-80
2021/03/03 06:20:18;;;;;;;23.30;12.63;;;7.50;78.30;;;;;;5035613;28;20025;-80
2021/03/03 06:22:44;;;;;;;23.67;12.63;;;7.40;78.40;;;;;;5035410;28;20450;-80
2021/03/03 06:25:21;;;;;;;24.58;13.10;;;7.40;78.70;;;;;;5035301;28;20156;-80
2021/03/03 06:27:47;;;;;;;24.23;12.10;;;7.50;78.80;;;;;;5017828;28;20099;-80
2021/03/03 06:30:18;;;;;;;25.58;11.10;;;7.50;78.80;;;;;;5017697;28;20017;-80
2021/03/03 06:33:04;;;;;;;28.30;13.05;;;7.50;78.60;;;;;;5034795;28;20022;-80
2021/03/03 06:35:48;;;;;;;23.55;12.30;;;7.50;78.60;;;;;;5034960;28;20017;-80
2021/03/03 06:38:15;;;;;;;17.73;10.65;;;7.50;78.90;;;;;;5034918;28;20026;-79
2021/03/03 06:40:58;;;;;;;23.70;12.63;;;7.50;79.30;;;;;;5017421;28;20078;-79
2021/03/03 06:43:29;;;;;;;26.77;13.10;;;7.50;79.80;;;;;;5034746;28;20030;-80
2021/03/03 06:45:56;;;;;;;24.77;12.77;;;7.50;80.00;;;;;;5017649;28;20025;-79
2021/03/03 06:48:42;;;;;;;25.02;12.68;;;7.50;80.30;;;;;;5017337;28;20447;-79
2021/03/03 06:51:23;;;;;;;27.00;13.35;;;7.60;80.50;;;;;;5017544;28;20033;-79
2021/03/03 06:53:49;;;;;;;25.48;12.75;;;7.60;80.20;;;;;;5032975;28;20494;-79
2021/03/03 06:56:35;;;;;;;29.70;11.90;;;7.60;79.80;;;;;;5016795;28;20544;-80
2021/03/03 06:59:22;;;;;;;28.80;13.35;;;7.70;79.80;;;;;;5016960;28;20029;-80
2021/03/03 07:01:59;;;;;;;27.10;12.65;;;7.80;80.00;;;;;;5017127;28;20547;-77
2021/03/03 07:04:31;;;;;;;25.52;12.38;;;7.80;79.60;;;;;;5034669;28;20411;-77
2021/03/03 07:07:02;;;;;;;22.63;12.10;;;7.90;79.40;;;;;;5016928;28;20032;-77
2021/03/03 07:09:47;;;;;;;23.20;13.25;;;7.90;79.50;;;;;;5034555;28;20029;-77
2021/03/03 07:12:15;;;;;;;23.98;12.80;;;8.00;79.60;;;;;;5016681;28;20113;-77
2021/03/03 07:14:42;;;;;;;23.85;12.52;;;8.00;79.20;;;;;;5034393;28;20053;-77
2021/03/03 07:17:18;;;;;;;26.73;13.85;;;8.10;79.20;;;;;;5034084;28;20075;-77
2021/03/03 07:19:49;;;;;;;24.58;13.98;;;8.10;79.00;;;;;;5034451;28;20124;-77
2021/03/03 07:22:25;;;;;;;27.52;14.10;;;8.20;79.80;;;;;;5016555;28;20057;-77
2021/03/03 07:25:03;;;;;;;30.67;16.77;;;8.30;79.60;;;;;;5033917;28;20026;-77
2021/03/03 07:27:29;;;;;;;41.28;19.20;;;8.30;78.90;;;;;;5023669;28;20100;-80
2021/03/03 07:30:17;;;;;;;39.25;18.67;;;8.40;78.90;;;;;;5034010;28;20022;-80
2021/03/03 07:32:43;;;;;;;43.72;19.30;;;8.40;79.30;;;;;;5014237;28;20029;-80
2021/03/03 07:35:11;;;;;;;31.33;15.90;;;8.50;79.90;;;;;;4996308;28;20030;-80
2021/03/03 07:37:51;;;;;;;32.58;17.58;;;8.60;81.60;;;;;;4996263;28;20483;-76
2021/03/03 07:40:17;;;;;;;38.33;19.00;;;8.80;81.00;;;;;;5014001;28;20041;-76
2021/03/03 07:42:51;;;;;;;38.92;19.52;;;8.80;79.80;;;;;;5014134;28;20022;-78
2021/03/03 07:45:19;;;;;;;37.90;17.95;;;8.90;80.10;;;;;;5008131;28;20026;-78
2021/03/03 07:47:46;;;;;;;46.20;19.77;;;8.90;81.70;;;;;;5017627;28;20025;-78
2021/03/03 07:50:40;;;;;;;36.42;17.92;;;9.00;82.30;;;;;;5027875;28;20028;-78
2021/03/03 07:53:08;;;;;;;40.90;18.98;;;9.10;81.10;;;;;;5010395;28;20055;-78
2021/03/03 07:55:38;;;;;;;40.90;19.35;;;9.10;80.80;;;;;;5011348;28;20052;-78
2021/03/03 07:58:06;;;;;;;39.13;18.90;;;9.20;81.60;;;;;;5030897;28;20025;-78
2021/03/03 08:00:34;;;;;;;38.00;19.08;;;9.30;81.10;;;;;;5029191;28;20033;-78
2021/03/03 08:03:00;;;;;;;45.42;19.15;;;9.30;80.60;;;;;;5013304;28;20022;-77
2021/03/03 08:05:31;;;;;;;37.75;18.65;;;9.40;80.60;;;;;;5029950;28;20502;-77
2021/03/03 08:08:23;;;;;;;39.83;19.77;;;9.50;81.00;;;;;;5029525;28;20071;-78
2021/03/03 08:11:00;;;;;;;37.95;17.67;;;9.70;80.40;;;;;;5009069;28;20028;-77
2021/03/03 08:13:28;;;;;;;34.60;18.60;;;9.70;79.50;;;;;;5029971;28;20022;-77
2021/03/03 08:16:15;;;;;;;35.53;17.00;;;9.80;81.00;;;;;;5012249;28;20088;-77
2021/03/03 08:18:49;;;;;;;36.72;18.40;;;9.90;81.30;;;;;;5030003;28;20038;-75
2021/03/03 08:21:18;;;;;;;40.45;19.10;;;10.00;81.90;;;;;;5029929;28;20033;-75
2021/03/03 08:23:53;;;;;;;44.20;19.48;;;10.20;80.80;;;;;;5011184;28;20124;-75
2021/03/03 08:26:18;;;;;;;40.63;19.70;;;10.30;79.30;;;;;;5030588;28;20028;-75
2021/03/03 08:28:49;;;;;;;45.25;18.98;;;10.40;75.50;;;;;;5028920;28;20517;-75
2021/03/03 08:31:15;;;;;;;37.30;19.35;;;10.40;74.70;;;;;;5030456;28;20093;-75
2021/03/03 08:33:53;;;;;;;48.50;19.70;;;10.50;75.80;;;;;;5029164;28;20768;-75
2021/03/03 08:36:21;;;;;;;48.50;20.52;;;10.50;75.80;;;;;;5029964;28;20061;-75
2021/03/03 08:38:56;;;;;;;41.88;20.48;;;10.60;74.50;;;;;;5009999;28;20079;-77
2021/03/03 08:44:14;;;;;;;46.33;20.58;;;10.70;75.90;;;;;;5029361;28;20045;-78
2021/03/03 08:46:50;;;;;;;43.78;19.08;;;10.80;76.50;;;;;;5013006;28;20061;-78
2021/03/03 08:49:23;;;;;;;37.90;19.60;;;10.80;75.50;;;;;;5029309;28;20033;-78
2021/03/03 08:52:33;;;;;;;38.33;19.00;;;10.80;75.70;;;;;;5030492;28;20083;-77
2021/03/03 08:55:03;;;;;;;42.20;19.85;;;10.90;75.80;;;;;;5014131;28;20141;-78
2021/03/03 09:03:43;;;;;;;44.15;20.10;;;11.00;76.90;;;;;;5032942;28;20460;-79
2021/03/03 09:06:14;;;;;;;42.67;20.08;;;11.00;74.80;;;;;;5014446;28;20022;-78
2021/03/03 09:08:53;;;;;;;44.97;21.83;;;11.00;75.90;;;;;;5031199;28;20088;-78
2021/03/03 09:15:34;;;;;;;44.25;20.85;;;11.10;75.70;;;;;;4929147;29;20050;-78
2021/03/03 09:18:05;;;;;;;39.40;19.48;;;11.10;75.60;;;;;;4949918;29;20039;-77
2021/03/03 09:20:46;;;;;;;35.92;19.60;;;11.10;74.30;;;;;;5010904;28;20034;-78
2021/03/03 09:23:23;;;;;;;35.50;18.67;;;11.10;73.70;;;;;;5007959;28;20021;-78
2021/03/03 09:25:49;;;;;;;35.05;18.08;;;11.20;73.30;;;;;;5008925;28;20030;-78
2021/03/03 09:28:15;;;;;;;43.83;19.35;;;11.30;72.90;;;;;;5006889;28;20472;-79
2021/03/03 09:30:40;;;;;;;35.60;18.42;;;11.30;72.30;;;;;;5008092;28;20030;-79
2021/03/03 09:33:07;;;;;;;38.78;18.77;;;11.30;73.30;;;;;;5009743;28;20479;-78
2021/03/03 09:35:33;;;;;;;35.78;18.33;;;11.40;74.00;;;;;;5012551;28;20095;-79
2021/03/03 09:38:01;;;;;;;34.55;19.13;;;11.40;74.00;;;;;;5010025;28;20076;-79
2021/03/03 09:40:31;;;;;;;35.92;18.42;;;11.50;74.30;;;;;;5027422;28;20495;-79
2021/03/03 09:42:57;;;;;;;44.53;20.20;;;11.60;72.60;;;;;;5008158;28;20021;-79
2021/03/03 09:45:24;;;;;;;42.28;19.70;;;11.60;73.00;;;;;;5027484;28;20036;-79
2021/03/03 09:47:51;;;;;;;41.00;21.35;;;11.70;72.20;;;;;;5010284;28;20197;-79
2021/03/03 09:50:18;;;;;;;45.70;21.27;;;11.80;72.00;;;;;;5027239;28;20100;-79
2021/03/03 09:52:46;;;;;;;44.70;20.85;;;11.90;69.20;;;;;;5027041;28;20022;-79
2021/03/03 09:55:14;;;;;;;44.80;22.38;;;12.00;69.70;;;;;;5012896;28;20026;-79
2021/03/03 09:57:48;;;;;;;40.08;20.73;;;12.10;71.40;;;;;;5010667;28;20021;-79
2021/03/03 10:00:16;;;;;;;42.78;21.83;;;12.20;72.20;;;;;;5010322;28;20041;-78
2021/03/03 10:03:02;;;;;;;37.53;20.38;;;12.30;70.70;;;;;;5011516;28;20030;-78
2021/03/03 10:05:30;;;;;;;44.55;21.40;;;12.30;70.00;;;;;;5005725;28;20022;-78
2021/03/03 10:08:27;;;;;;;41.72;20.73;;;12.50;69.50;;;;;;5013385;28;20053;-79
2021/03/03 10:10:57;;;;;;;52.28;21.85;;;12.50;69.10;;;;;;5010103;28;20065;-79
2021/03/03 10:13:25;;;;;;;46.95;22.13;;;12.60;70.20;;;;;;5009847;28;20030;-79
2021/03/03 10:15:51;;;;;;;51.55;23.83;;;12.60;67.40;;;;;;5025433;28;20124;-79
2021/03/03 10:18:17;;;;;;;49.20;21.88;;;12.60;68.20;;;;;;5029192;28;20509;-78
2021/03/03 10:20:53;;;;;;;48.70;22.35;;;12.70;69.30;;;;;;5011494;28;20029;-79
2021/03/03 10:23:22;;;;;;;53.33;22.83;;;12.70;66.40;;;;;;5012658;28;20479;-79
2021/03/03 10:26:05;;;;;;;43.05;21.35;;;12.80;68.00;;;;;;5011450;28;20067;-78
2021/03/03 10:28:31;;;;;;;59.95;24.05;;;12.90;67.50;;;;;;5030290;28;20486;-78
2021/03/03 10:31:04;;;;;;;43.33;23.48;;;12.90;69.30;;;;;;5030360;28;20032;-78
2021/03/03 10:33:37;;;;;;;45.15;22.25;;;12.90;70.10;;;;;;5015545;28;20136;-79
2021/03/03 10:36:13;;;;;;;48.80;22.52;;;13.00;70.00;;;;;;5030876;28;20033;-79
2021/03/03 10:38:48;;;;;;;45.88;22.48;;;13.10;70.90;;;;;;5032833;28;20029;-79
2021/03/03 10:41:32;;;;;;;41.63;21.98;;;13.20;69.80;;;;;;5012996;28;20052;-78
2021/03/03 10:44:03;;;;;;;46.15;22.73;;;13.30;69.30;;;;;;4995207;28;20022;-78
2021/03/03 10:46:30;;;;;;;39.85;20.85;;;13.30;69.60;;;;;;5030380;28;20526;-79
2021/03/03 10:49:11;;;;;;;35.13;18.35;;;13.30;67.60;;;;;;5032363;28;20013;-79
2021/03/03 10:51:39;;;;;;;32.45;16.17;;;13.30;65.10;;;;;;5007590;28;20053;-79
2021/03/03 10:54:07;;;;;;;26.52;13.98;;;13.30;65.30;;;;;;5014290;28;20026;-79
2021/03/03 10:56:41;;;;;;;24.05;11.95;;;13.40;63.80;;;;;;5029406;28;20033;-79
2021/03/03 10:59:12;;;;;;;19.60;10.88;;;13.40;63.20;;;;;;5014786;28;20109;-79
2021/03/03 11:01:46;;;;;;;15.32;9.73;;;13.50;61.40;;;;;;5031500;28;20026;-79
2021/03/03 11:04:13;;;;;;;20.60;9.07;;;13.60;59.60;;;;;;5031704;28;20025;-79
2021/03/03 11:06:39;;;;;;;57.75;30.88;;;13.60;63.30;;;;;;5031613;28;20022;-78
2021/03/03 11:09:10;;;;;;;26.30;13.30;;;13.80;61.10;;;;;;5016360;28;20387;-79
2021/03/03 11:11:52;;;;;;;30.55;14.32;;;13.90;58.70;;;;;;5015641;28;20640;-79
2021/03/03 11:14:38;;;;;;;29.30;15.52;;;14.00;59.30;;;;;;5032090;28;20502;-78
2021/03/03 11:17:05;;;;;;;32.05;15.32;;;14.10;61.20;;;;;;5031471;28;20523;-77
2021/03/03 11:19:31;;;;;;;28.27;15.00;;;14.10;60.70;;;;;;5031161;28;20507;-77
2021/03/03 11:21:57;;;;;;;32.58;16.77;;;14.10;59.30;;;;;;5031270;28;20053;-77
2021/03/03 11:24:25;;;;;;;42.20;17.83;;;14.10;59.40;;;;;;5031896;28;20041;-77
2021/03/03 11:26:50;;;;;;;38.30;18.08;;;14.10;60.10;;;;;;5031958;28;20036;-77
2021/03/03 11:29:19;;;;;;;33.40;18.00;;;14.00;59.80;;;;;;5014168;28;20367;-77
2021/03/03 11:31:45;;;;;;;36.33;18.48;;;14.00;59.90;;;;;;5014337;28;20049;-77
2021/03/03 11:34:11;;;;;;;41.15;20.00;;;14.10;60.60;;;;;;5014254;28;20061;-76
2021/03/03 11:36:37;;;;;;;38.38;20.10;;;14.00;60.60;;;;;;5031350;28;20021;-77
2021/03/03 11:39:10;;;;;;;37.53;20.30;;;14.00;60.40;;;;;;5012823;28;20104;-77
2021/03/03 11:41:36;;;;;;;36.60;18.42;;;14.00;60.50;;;;;;5032206;28;20035;-78
2021/03/03 11:44:03;;;;;;;39.85;19.67;;;14.00;61.20;;;;;;5031269;28;20029;-77
2021/03/03 11:46:29;;;;;;;36.42;19.42;;;14.10;62.50;;;;;;5031879;28;20025;-77
2021/03/03 11:48:55;;;;;;;40.53;18.02;;;13.90;60.80;;;;;;5030666;28;20067;-77
2021/03/03 11:51:21;;;;;;;33.13;18.92;;;13.90;60.20;;;;;;5031218;28;20475;-76
2021/03/03 11:53:46;;;;;;;37.72;20.23;;;14.00;60.70;;;;;;5030763;28;20112;-77
2021/03/03 11:56:15;;;;;;;31.70;18.13;;;14.00;61.70;;;;;;5030300;28;20413;-77
2021/03/03 11:58:40;;;;;;;37.35;20.15;;;14.10;61.90;;;;;;5012136;28;20124;-77
2021/03/03 12:01:06;;;;;;;36.38;18.95;;;14.10;64.10;;;;;;5029996;28;20112;-77
2021/03/03 12:03:32;;;;;;;46.63;22.10;;;14.20;63.60;;;;;;5014093;28;20029;-77
2021/03/03 12:05:57;;;;;;;39.72;21.02;;;14.20;62.90;;;;;;5014668;28;20033;-77
2021/03/03 12:08:23;;;;;;;39.70;20.30;;;14.20;62.60;;;;;;5015662;28;20021;-79
2021/03/03 12:10:49;;;;;;;40.08;22.50;;;14.20;63.10;;;;;;5033593;28;20056;-79
2021/03/03 12:13:18;;;;;;;37.60;20.50;;;14.20;62.70;;;;;;5015855;28;20094;-78
2021/03/03 12:15:43;;;;;;;45.72;21.70;;;14.30;63.30;;;;;;5014462;28;20042;-79
2021/03/03 12:18:09;;;;;;;41.75;22.15;;;14.30;63.00;;;;;;5015522;28;20029;-78
2021/03/03 12:20:35;;;;;;;41.42;21.85;;;14.30;63.80;;;;;;5033020;28;20430;-79
2021/03/03 12:23:01;;;;;;;46.83;21.65;;;14.30;63.20;;;;;;5015376;28;20104;-79
2021/03/03 12:25:27;;;;;;;41.25;21.75;;;14.40;62.10;;;;;;5032976;28;20044;-78
2021/03/03 12:27:53;;;;;;;40.67;20.95;;;14.50;62.10;;;;;;5032892;28;20091;-79
2021/03/03 12:30:20;;;;;;;42.65;22.48;;;14.40;61.00;;;;;;5032750;28;20434;-79
2021/03/03 12:32:45;;;;;;;41.08;21.95;;;14.40;61.80;;;;;;5027293;28;20030;-79
2021/03/03 12:35:11;;;;;;;47.88;23.20;;;14.50;62.80;;;;;;5033236;28;20486;-79
2021/03/03 12:37:37;;;;;;;42.35;21.90;;;14.50;63.10;;;;;;5033154;28;20017;-79
2021/03/03 12:40:04;;;;;;;49.35;22.88;;;14.50;61.30;;;;;;5033144;28;20099;-79
2021/03/03 12:42:30;;;;;;;39.08;22.05;;;14.50;60.80;;;;;;5014988;28;20026;-76
2021/03/03 12:44:55;;;;;;;44.47;22.17;;;14.50;60.00;;;;;;5032608;28;20030;-76
2021/03/03 12:47:22;;;;;;;43.00;23.85;;;14.50;61.00;;;;;;5032896;28;20101;-79
2021/03/03 12:49:47;;;;;;;44.97;23.73;;;14.60;62.20;;;;;;5033037;28;20116;-76
2021/03/03 12:52:13;;;;;;;49.67;23.92;;;14.60;62.80;;;;;;5032533;28;20121;-77
2021/03/03 12:54:42;;;;;;;44.08;24.33;;;14.70;61.30;;;;;;5029625;28;20029;-76
2021/03/03 12:57:08;;;;;;;45.17;23.10;;;14.60;60.40;;;;;;5028548;28;20036;-76